Latest Weather Observations for West Roebuck

IDW60801

Issued at 5:33 pm WST Sunday 20 August 2017 (issued every 30 minutes, with the page automatically refreshed every 10 minutes)

About weather observations | Map of weather stations | Latest weather observations for WA | Other Formats
Station Details ID: 003096 Name: WEST ROEBUCK Lat: -17.90 Lon: 122.31 Height: 32.0 m
Data from the previous 72 hours. | See also: Recent months at West Roebuck
Date/Time
WST
Temp
°C
App
Temp
°C
Dew
Point
°C
Rel
Hum
%
Delta-T
°C
Wind Press
QNH
hPa
Press
MSL
hPa
Rain since
9am
mm
Dir  Spd
km/h
Gust
km/h
Spd
kts
Gust
kts
20/05:30pm 25.2 - - - - WNW 11 15 6 8 - - 0.0
20/05:00pm 27.1 - - - - W 13 19 7 10 - - 0.0
20/04:30pm 29.0 - - - - W 11 17 6 9 - - 0.0
20/04:00pm 29.8 - - - - W 15 22 8 12 - - 0.0
20/03:30pm 31.1 - - - - W 15 22 8 12 - - 0.0
20/03:00pm 31.8 - - - - W 13 19 7 10 - - 0.0
20/02:30pm 31.4 - - - - WSW 13 20 7 11 - - 0.0
20/02:00pm 31.1 - - - - WSW 13 20 7 11 - - 0.0
20/01:30pm 30.5 - - - - WSW 13 19 7 10 - - 0.0
20/01:00pm 30.1 - - - - WSW 17 24 9 13 - - 0.0
20/12:30pm 29.8 - - - - SW 15 24 8 13 - - 0.0
20/12:00pm 30.5 - - - - SW 13 20 7 11 - - 0.0
20/11:30am 29.5 - - - - SW 13 20 7 11 - - 0.0
20/11:00am 29.2 - - - - SSW 13 19 7 10 - - 0.0
20/10:30am 27.7 - - - - SSW 13 22 7 12 - - 0.0
20/10:00am 27.7 - - - - SW 13 20 7 11 - - 0.0
20/09:30am 27.0 - - - - SW 11 17 6 9 - - 0.0
20/09:00am 26.3 - - - - SW 13 24 7 13 - - 0.0
20/08:30am 25.2 - - - - S 11 15 6 8 - - 0.0
20/08:00am 23.3 - - - - SSW 7 11 4 6 - - 0.0
20/07:30am 21.2 - - - - CALM 0 0 0 0 - - 0.0
20/07:00am 19.0 - - - - N 6 7 3 4 - - 0.0
20/06:30am 17.6 - - - - N 9 9 5 5 - - 0.0
20/06:00am 16.7 - - - - NNW 9 11 5 6 - - 0.0
20/05:30am 16.8 - - - - NNW 9 9 5 5 - - 0.0
20/05:00am 17.1 - - - - N 7 7 4 4 - - 0.0
20/04:30am 18.2 - - - - NNE 9 9 5 5 - - 0.0
20/04:00am 18.4 - - - - NNE 9 11 5 6 - - 0.0
20/03:30am 18.6 - - - - N 9 11 5 6 - - 0.0
20/03:00am 19.4 - - - - SW 6 9 3 5 - - 0.0
20/02:30am 17.8 - - - - SW 11 19 6 10 - - 0.0
20/02:00am 17.8 - - - - WSW 4 7 2 4 - - 0.0
20/01:30am 17.7 - - - - WSW 7 9 4 5 - - 0.0
20/01:00am 17.8 - - - - W 7 7 4 4 - - 0.0
20/12:30am 16.6 - - - - W 7 7 4 4 - - 0.0
20/12:00am 18.1 - - - - W 7 7 4 4 - - 0.0
 
Date/Time
WST
Temp
°C
App
Temp
°C
Dew
Point
°C
Rel
Hum
%
Delta-T
°C
Wind Press
QNH
hPa
Press
MSL
hPa
Rain since
9am
mm
Dir  Spd
km/h
Gust
km/h
Spd
kts
Gust
kts
19/11:30pm 17.5 - - - - NW 7 9 4 5 - - 0.0
19/11:00pm 18.1 - - - - NW 7 9 4 5 - - 0.0
19/10:30pm 18.8 - - - - NNW 7 7 4 4 - - 0.0
19/10:00pm 19.8 - - - - W 7 9 4 5 - - 0.0
19/09:30pm 20.8 - - - - WSW 9 11 5 6 - - 0.0
19/09:00pm 21.6 - - - - SW 9 13 5 7 - - 0.0
19/08:30pm 21.7 - - - - SW 11 17 6 9 - - 0.0
19/08:00pm 21.7 - - - - WSW 9 13 5 7 - - 0.0
19/07:30pm 22.1 - - - - SW 9 13 5 7 - - 0.0
19/07:00pm 22.2 - - - - WSW 9 13 5 7 - - 0.0
19/06:30pm 22.6 - - - - WSW 11 13 6 7 - - 0.0
19/06:00pm 23.6 - - - - WSW 11 15 6 8 - - 0.0
19/05:30pm 24.9 - - - - WSW 13 20 7 11 - - 0.0
19/05:00pm 26.7 - - - - WSW 15 24 8 13 - - 0.0
19/04:30pm 28.2 - - - - WSW 13 22 7 12 - - 0.0
19/04:00pm 29.2 - - - - WSW 15 22 8 12 - - 0.0
19/03:30pm 30.4 - - - - WSW 17 20 9 11 - - 0.0
19/03:00pm 30.6 - - - - WSW 17 22 9 12 - - 0.0
19/02:30pm 31.4 - - - - WSW 15 20 8 11 - - 0.0
19/02:00pm 32.1 - - - - W 15 20 8 11 - - 0.0
19/01:30pm 32.7 - - - - WSW 13 19 7 10 - - 0.0
19/01:00pm 32.5 - - - - SW 13 19 7 10 - - 0.0
19/12:30pm 32.6 - - - - SW 11 15 6 8 - - 0.0
19/12:00pm 32.3 - - - - SW 11 17 6 9 - - 0.0
19/11:30am 31.6 - - - - SSW 9 17 5 9 - - 0.0
19/11:00am 31.5 - - - - SW 9 15 5 8 - - 0.0
19/10:30am 30.2 - - - - SSW 11 17 6 9 - - 0.0
19/10:00am 29.3 - - - - SW 11 17 6 9 - - 0.0
19/09:30am 28.1 - - - - S 13 22 7 12 - - 0.0
19/09:00am 26.9 - - - - S 11 17 6 9 - - 0.0
19/08:30am 25.1 - - - - SSW 11 17 6 9 - - 0.0
19/08:00am 22.8 - - - - SSW 9 13 5 7 - - 0.0
19/07:30am 20.5 - - - - SSW 7 13 4 7 - - 0.0
19/07:00am 19.5 - - - - SSW 7 9 4 5 - - 0.0
19/06:30am 16.5 - - - - CALM 0 0 0 0 - - 0.0
19/06:00am 16.7 - - - - WNW 7 9 4 5 - - 0.0
19/05:30am 16.9 - - - - NNW 6 7 3 4 - - 0.0
19/05:00am 17.2 - - - - NW 2 7 1 4 - - 0.0
19/04:30am 18.0 - - - - CALM 0 0 0 0 - - 0.0
19/04:00am 17.7 - - - - WNW 6 6 3 3 - - 0.0
19/03:30am 17.7 - - - - WNW 7 7 4 4 - - 0.0
19/03:00am 19.7 - - - - WSW 9 11 5 6 - - 0.0
19/02:30am 17.6 - - - - WSW 9 13 5 7 - - 0.0
19/02:00am 17.5 - - - - W 9 9 5 5 - - 0.0
19/01:30am 18.0 - - - - WNW 7 9 4 5 - - 0.0
19/01:00am 16.4 - - - - WNW 9 9 5 5 - - 0.0
19/12:30am 18.8 - - - - W 7 9 4 5 - - 0.0
19/12:00am 19.1 - - - - W 9 9 5 5 - - 0.0
 
Date/Time
WST
Temp
°C
App
Temp
°C
Dew
Point
°C
Rel
Hum
%
Delta-T
°C
Wind Press
QNH
hPa
Press
MSL
hPa
Rain since
9am
mm
Dir  Spd
km/h
Gust
km/h
Spd
kts
Gust
kts
18/11:30pm 18.6 - - - - WNW 9 9 5 5 - - 0.0
18/11:00pm 18.9 - - - - NNW 9 11 5 6 - - 0.0
18/10:30pm 18.8 - - - - WNW 9 9 5 5 - - 0.0
18/10:00pm 19.7 - - - - NW 7 9 4 5 - - 0.0
18/09:30pm 20.2 - - - - WNW 7 9 4 5 - - 0.0
18/09:00pm 20.0 - - - - NW 7 9 4 5 - - 0.0
18/08:30pm 20.4 - - - - NW 6 7 3 4 - - 0.0
18/08:00pm 21.0 - - - - NW 7 9 4 5 - - 0.0
18/07:30pm 21.7 - - - - NW 7 9 4 5 - - 0.0
18/07:00pm 22.7 - - - - NW 9 11 5 6 - - 0.0
18/06:30pm 24.1 - - - - NW 11 13 6 7 - - 0.0
18/06:00pm 26.0 - - - - NW 9 13 5 7 - - 0.0
18/05:30pm 28.8 - - - - WNW 11 17 6 9 - - 0.0
18/05:00pm 32.4 - - - - WSW 9 17 5 9 - - 0.0
18/04:30pm 34.1 - - - - WSW 13 19 7 10 - - 0.0
18/04:00pm 35.2 - - - - WSW 13 20 7 11 - - 0.0
18/03:30pm 36.7 - - - - WNW 9 17 5 9 - - 0.0
18/03:00pm 36.6 - - - - W 4 9 2 5 - - 0.0
18/02:30pm 37.5 - - - - N 7 15 4 8 - - 0.0
18/02:00pm 36.8 - - - - ESE 9 19 5 10 - - 0.0
18/01:30pm 36.2 - - - - E 9 22 5 12 - - 0.0
18/01:00pm 35.9 - - - - ESE 11 19 6 10 - - 0.0
18/12:30pm 35.7 - - - - ESE 13 20 7 11 - - 0.0
18/12:00pm 35.2 - - - - E 15 24 8 13 - - 0.0
18/11:30am 35.0 - - - - E 17 26 9 14 - - 0.0
18/11:00am 33.3 - - - - E 20 28 11 15 - - 0.0
18/10:30am 32.5 - - - - E 17 28 9 15 - - 0.0
18/10:00am 31.6 - - - - E 17 26 9 14 - - 0.0
18/09:30am 30.0 - - - - E 17 28 9 15 - - 0.0
18/09:00am 28.2 - - - - E 19 30 10 16 - - 0.0
18/08:30am 26.8 - - - - E 15 24 8 13 - - 0.0
18/08:00am 25.0 - - - - E 15 24 8 13 - - 0.0
18/07:30am 22.7 - - - - E 11 19 6 10 - - 0.0
18/07:00am 20.0 - - - - ENE 11 17 6 9 - - 0.0
18/06:30am 15.7 - - - - ENE 11 13 6 7 - - 0.0
18/06:00am 15.6 - - - - E 9 13 5 7 - - 0.0
18/05:30am 17.0 - - - - E 11 15 6 8 - - 0.0
18/05:00am 16.5 - - - - ENE 11 17 6 9 - - 0.0
18/04:30am 14.5 - - - - E 11 13 6 7 - - 0.0
18/04:00am 14.8 - - - - E 9 11 5 6 - - 0.0
18/03:30am 15.5 - - - - ESE 11 13 6 7 - - 0.0
18/03:00am 15.9 - - - - ESE 11 13 6 7 - - 0.0
18/02:30am 16.1 - - - - ESE 11 13 6 7 - - 0.0
18/02:00am 16.4 - - - - SSE 7 11 4 6 - - 0.0
18/01:30am 17.2 - - - - WSW 4 6 2 3 - - 0.0
18/01:00am 17.5 - - - - W 7 11 4 6 - - 0.0
18/12:30am 17.1 - - - - WNW 9 9 5 5 - - 0.0
18/12:00am 17.0 - - - - NW 9 11 5 6 - - 0.0
 
Date/Time
WST
Temp
°C
App
Temp
°C
Dew
Point
°C
Rel
Hum
%
Delta-T
°C
Wind Press
QNH
hPa
Press
MSL
hPa
Rain since
9am
mm
Dir  Spd
km/h
Gust
km/h
Spd
kts
Gust
kts
17/11:30pm 16.8 - - - - NW 9 11 5 6 - - 0.0
17/11:00pm 17.1 - - - - NNW 9 11 5 6 - - 0.0
17/10:30pm 16.7 - - - - NW 11 11 6 6 - - 0.0
17/10:00pm 17.9 - - - - W 7 9 4 5 - - 0.0
17/09:30pm 17.5 - - - - NW 9 11 5 6 - - 0.0
17/09:00pm 17.6 - - - - W 11 11 6 6 - - 0.0
17/08:30pm 18.3 - - - - W 9 11 5 6 - - 0.0
17/08:00pm 18.9 - - - - W 7 9 4 5 - - 0.0
17/07:30pm 19.6 - - - - WNW 6 7 3 4 - - 0.0
17/07:00pm 20.4 - - - - WNW 7 9 4 5 - - 0.0
17/06:30pm 22.2 - - - - WNW 6 7 3 4 - - 0.0
17/06:00pm 24.5 - - - - WSW 9 11 5 6 - - 0.0

Other Formats:

Comma delimited format used in spreadsheet applications
http://www.bom.gov.au/fwo/IDW60801/IDW60801.95204.axf

JavaScript Object Notation format (JSON) in row-major order
http://www.bom.gov.au/fwo/IDW60801/IDW60801.95204.json